Time;durP1;ratioP1;P1;durP2;ratioP2;P2;SDS_P1;SDS_P2;PMS_P1;PMS_P2;Temp;Humidity;BMP_temperature;BMP_pressure;BME280_temperature;BME280_humidity;BME280_pressure;Samples;Min_cycle;Max_cycle;Signal;HPM_P1;HPM_P2
2022/03/21 00:01:12;;;;;;;;;;;8.00;1.00;;;;;;5075519;28;19913;-79
2022/03/21 00:03:38;;;;;;;;;;;8.00;1.00;;;;;;5070713;28;19912;-79
2022/03/21 00:06:04;;;;;;;;;;;8.00;1.00;;;;;;5072866;28;20377;-79
2022/03/21 00:08:29;;;;;;;;;;;7.90;99.90;;;;;;5070852;28;19916;-79
2022/03/21 00:10:55;;;;;;;;;;;7.90;99.90;;;;;;5072611;28;19912;-79
2022/03/21 00:13:21;;;;;;;;;;;7.90;1.00;;;;;;5070658;28;19974;-80
2022/03/21 00:15:48;;;;;;;;;;;7.90;1.00;;;;;;5088056;28;19912;-80
2022/03/21 00:18:14;;;;;;;;;;;8.00;42.40;;;;;;5072049;28;19956;-80
2022/03/21 00:20:41;;;;;;;;;;;8.00;1.00;;;;;;5072470;28;19913;-80
2022/03/21 00:23:06;;;;;;;;;;;8.00;1.00;;;;;;5070350;28;19916;-79
2022/03/21 00:25:32;;;;;;;;;;;8.00;99.90;;;;;;5071160;28;19924;-79
2022/03/21 00:27:58;;;;;;;;;;;8.00;99.90;;;;;;5072951;28;19999;-79
2022/03/21 00:30:24;;;;;;;;;;;8.10;1.00;;;;;;5071988;28;20035;-80
2022/03/21 00:32:49;;;;;;;;;;;8.00;58.30;;;;;;5071862;28;20415;-80
2022/03/21 00:35:15;;;;;;;;;;;8.00;1.00;;;;;;5069797;28;19912;-80
2022/03/21 00:37:41;;;;;;;;;;;8.10;26.10;;;;;;5088460;28;19999;-80
2022/03/21 00:40:07;;;;;;;;;;;8.10;99.90;;;;;;5072060;28;20368;-79
2022/03/21 00:42:34;;;;;;;;;;;8.10;99.90;;;;;;5072719;28;19928;-79
2022/03/21 00:45:03;;;;;;;;;;;8.10;99.90;;;;;;5073263;28;19913;-79
2022/03/21 00:47:29;;;;;;;;;;;8.10;99.90;;;;;;5073218;28;19920;-80
2022/03/21 00:49:55;;;;;;;;;;;8.20;1.00;;;;;;5073555;28;19935;-80
2022/03/21 00:52:20;;;;;;;;;;;8.20;1.00;;;;;;5068102;28;19987;-79
2022/03/21 00:54:46;;;;;;;;;;;8.20;1.00;;;;;;5076244;28;19939;-79
2022/03/21 00:57:11;;;;;;;;;;;8.20;1.00;;;;;;5076476;28;20015;-79
2022/03/21 00:59:37;;;;;;;;;;;8.20;1.00;;;;;;5077448;28;19920;-79
2022/03/21 01:02:02;;;;;;;;;;;8.20;47.90;;;;;;5075600;28;19912;-80
2022/03/21 01:04:28;;;;;;;;;;;8.20;99.90;;;;;;5072708;28;19927;-80
2022/03/21 01:06:53;;;;;;;;;;;8.20;1.00;;;;;;5071976;28;19919;-80
2022/03/21 01:09:19;;;;;;;;;;;8.20;99.90;;;;;;5073553;28;20314;-80
2022/03/21 01:11:45;;;;;;;;;;;8.20;99.90;;;;;;5073982;28;20285;-79
2022/03/21 01:14:11;;;;;;;;;;;8.20;1.00;;;;;;5075545;28;19965;-79
2022/03/21 01:16:37;;;;;;;;;;;8.20;99.90;;;;;;5072443;28;19939;-80
2022/03/21 01:19:03;;;;;;;;;;;8.20;99.90;;;;;;5073295;28;19955;-80
2022/03/21 01:21:29;;;;;;;;;;;8.20;99.90;;;;;;5073891;28;19924;-80
2022/03/21 01:23:54;;;;;;;;;;;8.20;99.90;;;;;;5074414;28;19927;-80
2022/03/21 01:26:20;;;;;;;;;;;8.20;1.00;;;;;;5073144;28;19947;-80
2022/03/21 01:28:45;;;;;;;;;;;8.20;1.00;;;;;;5074684;28;19924;-80
2022/03/21 01:31:11;;;;;;;;;;;8.20;99.90;;;;;;5074462;28;19912;-80
2022/03/21 01:33:38;;;;;;;;;;;8.30;1.00;;;;;;5071895;28;19931;-80
2022/03/21 01:36:04;;;;;;;;;;;8.30;1.00;;;;;;5073571;28;19920;-79
2022/03/21 01:38:29;;;;;;;;;;;8.40;99.90;;;;;;5073600;28;20007;-80
2022/03/21 01:40:55;;;;;;;;;;;8.40;1.00;;;;;;5073992;28;19947;-80
2022/03/21 01:43:20;;;;;;;;;;;8.40;1.00;;;;;;5074221;28;19912;-80
2022/03/21 01:45:45;;;;;;;;;;;8.40;99.90;;;;;;5078942;28;20277;-80
2022/03/21 01:48:11;;;;;;;;;;;8.40;99.90;;;;;;5076557;28;19916;-80
2022/03/21 01:50:37;;;;;;;;;;;8.30;1.00;;;;;;5076246;28;19920;-80
2022/03/21 01:55:48;;;;;;;;;;;8.30;1.00;;;;;;5075407;28;19951;-80
2022/03/21 01:58:14;;;;;;;;;;;8.20;1.00;;;;;;5076117;28;19912;-81
2022/03/21 02:00:44;;;;;;;;;;;8.20;1.00;;;;;;5075564;28;19921;-80
2022/03/21 02:03:09;;;;;;;;;;;8.20;50.20;;;;;;5074424;28;19919;-79
2022/03/21 02:05:36;;;;;;;;;;;8.20;99.90;;;;;;5073921;28;19912;-80
2022/03/21 02:08:02;;;;;;;;;;;8.20;99.90;;;;;;5075154;28;19920;-80
2022/03/21 02:10:28;;;;;;;;;;;8.20;99.90;;;;;;5074098;28;20351;-80
2022/03/21 02:12:54;;;;;;;;;;;8.20;99.90;;;;;;5072581;28;19912;-79
2022/03/21 02:15:20;;;;;;;;;;;8.20;1.00;;;;;;5073822;28;19974;-80
2022/03/21 02:17:46;;;;;;;;;;;8.10;99.90;;;;;;5075611;28;19912;-79
2022/03/21 02:20:13;;;;;;;;;;;8.10;99.90;;;;;;5074357;28;19913;-80
2022/03/21 02:22:39;;;;;;;;;;;8.10;1.00;;;;;;5073191;28;21595;-79
2022/03/21 02:25:10;;;;;;;;;;;8.00;1.00;;;;;;5088817;28;19975;-80
2022/03/21 02:27:37;;;;;;;;;;;8.00;99.90;;;;;;5072377;28;20010;-79
2022/03/21 02:30:03;;;;;;;;;;;7.90;99.90;;;;;;5088426;28;19981;-79
2022/03/21 02:32:29;;;;;;;;;;;7.90;35.50;;;;;;5071738;28;19912;-80
2022/03/21 02:34:55;;;;;;;;;;;7.90;99.90;;;;;;5074392;28;19920;-79
2022/03/21 02:37:21;;;;;;;;;;;7.80;1.00;;;;;;5073824;28;19916;-79
2022/03/21 02:39:48;;;;;;;;;;;7.80;99.90;;;;;;5087740;28;20014;-79
2022/03/21 02:42:14;;;;;;;;;;;7.70;1.00;;;;;;5069995;28;20287;-79
2022/03/21 02:44:39;;;;;;;;;;;7.60;99.90;;;;;;5073742;28;20023;-79
2022/03/21 02:47:05;;;;;;;;;;;7.60;99.90;;;;;;5072783;28;19920;-79
2022/03/21 02:49:31;;;;;;;;;;;7.50;99.90;;;;;;5073450;28;19920;-79
2022/03/21 02:51:59;;;;;;;;;;;7.50;1.00;;;;;;5087344;28;19917;-79
2022/03/21 02:54:25;;;;;;;;;;;7.50;1.00;;;;;;5071244;28;19912;-79
2022/03/21 02:56:50;;;;;;;;;;;7.50;1.00;;;;;;5073349;28;19912;-79
2022/03/21 02:59:16;;;;;;;;;;;7.50;1.00;;;;;;5072635;28;20381;-79
2022/03/21 03:01:42;;;;;;;;;;;7.50;1.00;;;;;;5073424;28;19928;-79
2022/03/21 03:04:08;;;;;;;;;;;7.50;1.00;;;;;;5070702;28;19912;-79
2022/03/21 03:06:34;;;;;;;;;;;7.40;1.00;;;;;;5086137;28;20296;-79
2022/03/21 03:08:59;;;;;;;;;;;7.40;1.00;;;;;;5073835;28;20014;-80
2022/03/21 03:11:25;;;;;;;;;;;7.50;1.00;;;;;;5071673;28;19984;-79
2022/03/21 03:13:50;;;;;;;;;;;7.50;95.90;;;;;;5071250;28;19917;-79
2022/03/21 03:16:16;;;;;;;;;;;7.60;99.90;;;;;;5073183;28;19930;-80
2022/03/21 03:18:44;;;;;;;;;;;7.70;1.00;;;;;;5071826;28;19920;-79
2022/03/21 03:21:10;;;;;;;;;;;7.70;1.00;;;;;;5073458;28;20333;-79
2022/03/21 03:23:38;;;;;;;;;;;7.70;99.90;;;;;;5069836;28;20418;-79
2022/03/21 03:26:04;;;;;;;;;;;7.70;99.90;;;;;;5085996;28;19916;-79
2022/03/21 03:28:31;;;;;;;;;;;7.60;1.00;;;;;;5072265;28;19939;-79
2022/03/21 03:30:57;;;;;;;;;;;7.50;1.00;;;;;;5071822;28;19917;-79
2022/03/21 03:33:23;;;;;;;;;;;7.40;99.90;;;;;;5074170;28;20335;-80
2022/03/21 03:35:48;;;;;;;;;;;7.40;99.90;;;;;;5088659;28;19912;-79
2022/03/21 03:38:15;;;;;;;;;;;7.30;99.90;;;;;;5076958;28;20019;-79
2022/03/21 03:40:40;;;;;;;;;;;7.30;99.90;;;;;;5074450;28;19913;-79
2022/03/21 03:43:06;;;;;;;;;;;7.30;99.90;;;;;;5071395;28;20376;-79
2022/03/21 03:45:31;;;;;;;;;;;7.20;1.00;;;;;;5071530;28;20330;-79
2022/03/21 03:47:57;;;;;;;;;;;7.20;1.00;;;;;;5071816;28;19917;-79
2022/03/21 03:50:22;;;;;;;;;;;7.20;82.50;;;;;;5073492;28;19970;-79
2022/03/21 03:52:48;;;;;;;;;;;7.20;1.00;;;;;;5072272;28;19920;-79
2022/03/21 03:55:15;;;;;;;;;;;7.20;1.00;;;;;;5072790;28;19927;-79
2022/03/21 03:57:40;;;;;;;;;;;7.10;8.20;;;;;;5072010;28;19966;-80
2022/03/21 04:00:07;;;;;;;;;;;7.10;99.90;;;;;;5073450;28;19913;-79
2022/03/21 04:03:44;;;;;;;;;;;7.10;99.90;;;;;;5070879;28;19912;-79
2022/03/21 04:05:19;;;;;;;;;;;7.00;99.90;;;;;;5069029;28;19912;-79
2022/03/21 04:07:44;;;;;;;;;;;7.00;99.90;;;;;;5075184;28;19924;-79
2022/03/21 04:10:09;;;;;;;;;;;6.90;99.90;;;;;;5077003;28;20029;-78
2022/03/21 04:12:35;;;;;;;;;;;6.90;1.00;;;;;;5072709;28;19912;-79
2022/03/21 04:15:00;;;;;;;;;;;6.90;1.00;;;;;;5071350;28;19927;-79
2022/03/21 04:17:26;;;;;;;;;;;6.90;1.00;;;;;;5071511;28;19912;-79
2022/03/21 04:19:51;;;;;;;;;;;6.80;99.90;;;;;;5071330;28;19923;-80
2022/03/21 04:22:17;;;;;;;;;;;6.80;99.90;;;;;;5070315;28;19916;-80
2022/03/21 04:24:42;;;;;;;;;;;6.80;99.90;;;;;;5070609;28;20368;-79
2022/03/21 04:27:08;;;;;;;;;;;6.80;1.00;;;;;;5070687;28;19920;-79
2022/03/21 04:29:33;;;;;;;;;;;6.80;1.00;;;;;;5072764;28;19916;-79
2022/03/21 04:31:59;;;;;;;;;;;6.80;1.00;;;;;;5072601;28;20350;-79
2022/03/21 04:34:24;;;;;;;;;;;6.80;1.00;;;;;;5070697;28;19913;-79
2022/03/21 04:36:50;;;;;;;;;;;6.80;99.90;;;;;;5083175;28;19916;-79
2022/03/21 04:39:15;;;;;;;;;;;6.80;99.90;;;;;;5071492;28;19913;-79
2022/03/21 04:41:41;;;;;;;;;;;6.80;1.00;;;;;;5071317;28;19919;-80
2022/03/21 04:44:06;;;;;;;;;;;6.80;99.90;;;;;;5068333;28;19913;-79
2022/03/21 04:46:31;;;;;;;;;;;6.80;99.90;;;;;;5071773;28;19912;-79
2022/03/21 04:48:57;;;;;;;;;;;6.80;99.90;;;;;;5072067;28;19920;-79
2022/03/21 04:51:22;;;;;;;;;;;6.80;99.90;;;;;;5071042;28;19963;-79
2022/03/21 04:53:48;;;;;;;;;;;6.70;1.00;;;;;;5069426;28;19956;-79
2022/03/21 04:56:13;;;;;;;;;;;6.70;1.00;;;;;;5070286;28;19912;-79
2022/03/21 04:58:39;;;;;;;;;;;6.70;1.00;;;;;;5070452;28;19923;-79
2022/03/21 05:01:04;;;;;;;;;;;6.60;1.00;;;;;;5072199;28;19919;-79
2022/03/21 05:03:30;;;;;;;;;;;6.60;1.00;;;;;;5068141;28;19920;-79
2022/03/21 05:05:55;;;;;;;;;;;6.60;1.00;;;;;;5070664;28;19913;-79
2022/03/21 05:08:21;;;;;;;;;;;6.60;1.00;;;;;;5071805;28;19916;-79
2022/03/21 05:10:47;;;;;;;;;;;6.60;1.00;;;;;;5071210;28;20047;-79
2022/03/21 05:13:15;;;;;;;;;;;6.50;1.00;;;;;;5071425;28;20019;-79
2022/03/21 05:15:40;;;;;;;;;;;6.50;1.00;;;;;;5069454;28;19913;-79
2022/03/21 05:18:06;;;;;;;;;;;6.40;1.00;;;;;;5073260;28;19912;-79
2022/03/21 05:20:32;;;;;;;;;;;6.40;99.90;;;;;;5073300;28;20395;-79
2022/03/21 05:31:10;;;;;;;;;;;6.00;1.00;;;;;;5074854;28;19923;-79
2022/03/21 05:36:29;;;;;;;;;;;6.00;38.30;;;;;;5072225;28;19924;-79
2022/03/21 05:38:55;;;;;;;;;;;6.00;1.00;;;;;;5073081;28;19921;-79
2022/03/21 05:41:20;;;;;;;;;;;6.00;1.00;;;;;;5074231;28;19909;-78
2022/03/21 05:43:46;;;;;;;;;;;6.00;1.00;;;;;;5072932;28;20373;-79
2022/03/21 05:46:11;;;;;;;;;;;6.00;1.00;;;;;;5088707;28;19999;-79
2022/03/21 05:48:59;;;;;;;;;;;6.00;41.00;;;;;;5074206;28;19912;-79
2022/03/21 05:51:30;;;;;;;;;;;6.00;1.00;;;;;;5085297;28;19935;-79
2022/03/21 05:53:59;;;;;;;;;;;6.00;61.10;;;;;;5072848;28;19916;-79
2022/03/21 05:56:25;;;;;;;;;;;6.10;92.30;;;;;;5073613;28;19928;-79
2022/03/21 05:58:52;;;;;;;;;;;6.10;10.30;;;;;;5073281;28;19927;-79
2022/03/21 06:01:18;;;;;;;;;;;6.20;1.00;;;;;;5068260;28;20269;-79
2022/03/21 06:03:44;;;;;;;;;;;6.20;1.00;;;;;;5072298;28;19912;-79
2022/03/21 06:06:10;;;;;;;;;;;6.40;1.00;;;;;;5074785;28;20003;-80
2022/03/21 06:08:36;;;;;;;;;;;6.50;1.00;;;;;;5077136;28;19927;-80
2022/03/21 06:11:04;;;;;;;;;;;6.80;1.00;;;;;;5073825;28;19917;-79
2022/03/21 06:13:33;;;;;;;;;;;7.20;99.90;;;;;;5075281;28;19916;-80
2022/03/21 06:16:03;;;;;;;;;;;7.70;1.00;;;;;;5076764;28;19912;-79
2022/03/21 06:18:29;;;;;;;;;;;8.40;99.90;;;;;;5073390;28;20312;-79
2022/03/21 06:20:55;;;;;;;;;;;9.10;1.00;;;;;;5069933;28;20013;-80
2022/03/21 06:23:20;;;;;;;;;;;9.90;99.90;;;;;;5072422;28;19916;-80
2022/03/21 06:25:46;;;;;;;;;;;10.60;99.90;;;;;;5075440;28;19927;-80
2022/03/21 06:28:11;;;;;;;;;;;11.50;1.00;;;;;;5073543;28;19944;-79
2022/03/21 06:30:39;;;;;;;;;;;12.30;1.00;;;;;;5076027;28;19913;-80
2022/03/21 06:33:04;;;;;;;;;;;12.90;1.00;;;;;;5077413;28;19943;-80
2022/03/21 06:35:30;;;;;;;;;;;13.60;1.00;;;;;;5075251;28;19916;-80
2022/03/21 06:37:55;;;;;;;;;;;14.30;99.90;;;;;;5068605;28;20416;-80
2022/03/21 06:40:23;;;;;;;;;;;15.10;99.90;;;;;;5075512;28;19962;-80
2022/03/21 06:42:49;;;;;;;;;;;16.20;99.90;;;;;;5071182;28;19924;-80
2022/03/21 06:45:15;;;;;;;;;;;17.30;99.90;;;;;;5073465;28;20018;-80
2022/03/21 06:47:40;;;;;;;;;;;18.30;99.90;;;;;;5074124;28;19976;-81
2022/03/21 06:50:06;;;;;;;;;;;19.20;99.90;;;;;;5073476;28;19955;-80
2022/03/21 06:52:35;;;;;;;;;;;20.10;99.90;;;;;;5077897;28;19912;-80
2022/03/21 06:55:01;;;;;;;;;;;20.80;99.90;;;;;;5072749;28;20368;-81
2022/03/21 06:57:27;;;;;;;;;;;21.60;99.90;;;;;;5077934;28;19912;-80
2022/03/21 06:59:52;;;;;;;;;;;22.50;99.90;;;;;;5079315;28;19912;-80
2022/03/21 07:02:19;;;;;;;;;;;23.20;99.90;;;;;;5074943;28;19915;-80
2022/03/21 07:04:45;;;;;;;;;;;23.60;99.90;;;;;;5073808;28;19920;-80
2022/03/21 07:07:10;;;;;;;;;;;24.00;99.90;;;;;;5075851;28;20304;-80
2022/03/21 07:09:36;;;;;;;;;;;24.50;99.90;;;;;;5075986;28;19935;-80
2022/03/21 07:12:01;;;;;;;;;;;24.90;99.90;;;;;;5073529;28;20006;-80
2022/03/21 07:14:26;;;;;;;;;;;25.30;99.90;;;;;;5075685;28;19912;-81
2022/03/21 07:16:52;;;;;;;;;;;25.40;99.90;;;;;;5082463;28;19912;-80
2022/03/21 07:19:17;;;;;;;;;;;25.70;99.90;;;;;;5095523;28;19956;-81
2022/03/21 07:21:43;;;;;;;;;;;26.40;99.90;;;;;;5074741;28;19916;-81
2022/03/21 07:24:08;;;;;;;;;;;26.70;99.90;;;;;;5075696;28;19909;-80
2022/03/21 07:26:35;;;;;;;;;;;26.80;99.90;;;;;;5076055;28;19912;-82
2022/03/21 07:29:00;;;;;;;;;;;27.10;99.90;;;;;;5080493;28;19926;-81
2022/03/21 07:31:26;;;;;;;;;;;27.90;99.90;;;;;;5076527;28;20404;-82
2022/03/21 07:33:51;;;;;;;;;;;28.20;99.90;;;;;;5075464;28;20015;-81
2022/03/21 07:36:17;;;;;;;;;;;28.40;99.90;;;;;;5073005;28;20335;-79
2022/03/21 07:38:42;;;;;;;;;;;28.20;99.90;;;;;;5071962;28;20038;-78
2022/03/21 07:41:08;;;;;;;;;;;27.80;99.90;;;;;;5086415;28;19912;-78
2022/03/21 07:43:36;;;;;;;;;;;27.80;99.90;;;;;;5078953;28;19912;-78
2022/03/21 07:48:46;;;;;;;;;;;28.10;99.90;;;;;;5066986;28;19920;-78
2022/03/21 07:51:11;;;;;;;;;;;28.80;99.90;;;;;;5068562;28;19912;-79
2022/03/21 07:53:38;;;;;;;;;;;29.80;99.90;;;;;;5062173;28;19913;-78
2022/03/21 07:56:04;;;;;;;;;;;29.40;99.90;;;;;;5062648;28;20273;-78
2022/03/21 07:58:31;;;;;;;;;;;29.20;99.90;;;;;;5074430;28;19924;-78
2022/03/21 08:00:58;;;;;;;;;;;29.70;99.90;;;;;;5071174;28;19912;-79
2022/03/21 08:03:24;;;;;;;;;;;30.20;99.90;;;;;;5060595;28;19969;-78
2022/03/21 08:05:49;;;;;;;;;;;30.40;99.90;;;;;;5074166;28;19916;-78
2022/03/21 08:08:15;;;;;;;;;;;29.80;99.90;;;;;;5066284;28;19912;-81
2022/03/21 08:10:44;;;;;;;;;;;28.90;99.90;;;;;;5072205;28;19919;-81
2022/03/21 08:13:13;;;;;;;;;;;29.30;99.90;;;;;;5070470;28;20130;-79
2022/03/21 08:15:39;;;;;;;;;;;29.70;99.90;;;;;;5074625;28;19920;-80
2022/03/21 08:18:05;;;;;;;;;;;30.30;99.90;;;;;;5085048;28;19924;-81
2022/03/21 08:20:33;;;;;;;;;;;30.60;99.90;;;;;;5077486;28;19913;-80
2022/03/21 08:23:06;;;;;;;;;;;30.60;99.90;;;;;;5072259;28;19913;-79
2022/03/21 08:25:32;;;;;;;;;;;32.20;99.90;;;;;;5087664;28;19919;-78
2022/03/21 08:27:58;;;;;;;;;;;33.10;99.90;;;;;;5070260;28;19956;-79
2022/03/21 08:30:23;;;;;;;;;;;32.60;99.90;;;;;;5073186;28;19908;-79
2022/03/21 08:32:52;;;;;;;;;;;32.50;99.90;;;;;;5072400;28;19928;-78
2022/03/21 08:35:18;;;;;;;;;;;31.90;99.90;;;;;;5071901;28;20074;-78
2022/03/21 08:37:44;;;;;;;;;;;31.00;99.90;;;;;;5060330;28;20379;-80
2022/03/21 08:40:10;;;;;;;;;;;31.20;99.90;;;;;;5080959;28;20272;-78
2022/03/21 08:42:36;;;;;;;;;;;31.40;99.90;;;;;;5068702;28;19999;-80
2022/03/21 08:45:02;;;;;;;;;;;31.90;99.90;;;;;;5071948;28;19952;-79
2022/03/21 08:47:28;;;;;;;;;;;31.80;99.90;;;;;;5072791;28;19943;-79
2022/03/21 08:49:53;;;;;;;;;;;32.00;99.90;;;;;;5077530;28;19909;-79
2022/03/21 08:52:19;;;;;;;;;;;33.20;99.90;;;;;;5074248;28;20003;-79
2022/03/21 08:54:45;;;;;;;;;;;33.00;99.90;;;;;;5089985;28;19934;-79
2022/03/21 08:57:10;;;;;;;;;;;34.30;99.90;;;;;;5077679;28;20015;-79
2022/03/21 08:59:36;;;;;;;;;;;35.30;99.90;;;;;;5078717;28;19916;-79
2022/03/21 09:02:02;;;;;;;;;;;34.90;99.90;;;;;;5084605;28;19919;-79
2022/03/21 09:04:28;;;;;;;;;;;34.70;99.90;;;;;;5074430;28;20369;-80
2022/03/21 09:06:53;;;;;;;;;;;35.80;99.90;;;;;;5069850;28;20006;-79
2022/03/21 09:09:19;;;;;;;;;;;35.50;99.90;;;;;;5074534;28;20062;-78
2022/03/21 09:11:44;;;;;;;;;;;33.60;99.90;;;;;;5082149;28;19942;-78
2022/03/21 09:14:10;;;;;;;;;;;34.20;99.90;;;;;;5069948;28;19924;-79
2022/03/21 09:16:39;;;;;;;;;;;34.60;99.90;;;;;;5076647;28;19912;-78
2022/03/21 09:19:05;;;;;;;;;;;34.10;99.90;;;;;;5081424;28;19982;-78
2022/03/21 09:21:30;;;;;;;;;;;34.20;99.90;;;;;;5078014;28;19917;-78
2022/03/21 09:23:56;;;;;;;;;;;34.10;99.90;;;;;;5056315;28;19922;-78
2022/03/21 09:26:22;;;;;;;;;;;34.60;99.90;;;;;;5081235;28;19919;-79
2022/03/21 09:28:48;;;;;;;;;;;35.40;99.90;;;;;;5092835;28;19920;-79
2022/03/21 09:31:14;;;;;;;;;;;34.30;99.90;;;;;;5079602;28;19916;-79
2022/03/21 09:33:41;;;;;;;;;;;33.10;99.90;;;;;;5075854;28;20369;-80
2022/03/21 09:36:06;;;;;;;;;;;32.90;99.90;;;;;;5088480;28;20400;-79
2022/03/21 09:38:32;;;;;;;;;;;33.60;99.90;;;;;;5093226;28;19920;-79
2022/03/21 09:40:58;;;;;;;;;;;33.90;99.90;;;;;;5093736;28;20308;-78
2022/03/21 09:43:26;;;;;;;;;;;32.90;99.90;;;;;;5077920;28;19952;-79
2022/03/21 09:45:55;;;;;;;;;;;33.60;99.90;;;;;;5077922;28;19920;-79
2022/03/21 09:48:22;;;;;;;;;;;34.00;99.90;;;;;;5080848;28;19999;-79
2022/03/21 09:50:50;;;;;;;;;;;33.70;99.90;;;;;;5078376;28;19909;-79
2022/03/21 09:53:16;;;;;;;;;;;33.10;99.90;;;;;;5071168;28;19963;-80
2022/03/21 09:55:42;;;;;;;;;;;33.70;99.90;;;;;;5083964;28;19912;-79
2022/03/21 09:58:11;;;;;;;;;;;34.20;99.90;;;;;;5080637;28;19917;-79
2022/03/21 10:00:39;;;;;;;;;;;34.80;99.90;;;;;;5076449;28;20392;-79
2022/03/21 10:03:04;;;;;;;;;;;35.90;99.90;;;;;;5079937;28;19920;-79
2022/03/21 10:05:30;;;;;;;;;;;34.70;99.90;;;;;;5077715;28;20301;-80
2022/03/21 10:08:14;;;;;;;;;;;33.40;99.90;;;;;;5076963;28;20402;-79
2022/03/21 10:10:40;;;;;;;;;;;32.80;99.90;;;;;;5084725;28;19912;-80
2022/03/21 10:13:09;;;;;;;;;;;33.30;99.90;;;;;;5078153;28;20028;-78
2022/03/21 10:15:36;;;;;;;;;;;32.80;99.90;;;;;;5075644;28;19912;-80
2022/03/21 10:18:05;;;;;;;;;;;32.40;99.90;;;;;;5076664;28;19916;-80
2022/03/21 10:20:34;;;;;;;;;;;32.50;99.90;;;;;;5077223;28;19912;-79
2022/03/21 10:23:19;;;;;;;;;;;31.60;99.90;;;;;;5117595;22;20423;-83
2022/03/21 10:25:44;;;;;;;;;;;31.80;99.90;;;;;;5078755;28;19909;-82
2022/03/21 10:28:11;;;;;;;;;;;31.50;99.90;;;;;;5081769;28;20347;-83
2022/03/21 10:30:45;;;;;;;;;;;31.20;99.90;;;;;;5079259;28;19962;-82
2022/03/21 10:33:11;;;;;;;;;;;30.40;99.90;;;;;;5088371;28;19934;-83
2022/03/21 10:35:44;;;;;;;;;;;30.30;99.90;;;;;;5088004;28;19947;-84
2022/03/21 10:38:10;;;;;;;;;;;30.90;99.90;;;;;;5086362;28;19931;-82
2022/03/21 10:40:44;;;;;;;;;;;31.30;99.90;;;;;;5086908;28;19963;-82
2022/03/21 10:43:11;;;;;;;;;;;31.60;99.90;;;;;;5075404;28;19912;-82
2022/03/21 10:45:36;;;;;;;;;;;33.10;99.90;;;;;;5085571;28;20262;-83
2022/03/21 10:48:06;;;;;;;;;;;34.40;99.90;;;;;;5083060;28;19969;-83
2022/03/21 10:50:32;;;;;;;;;;;35.20;99.90;;;;;;5083881;28;19930;-82
2022/03/21 10:53:10;;;;;;;;;;;35.30;99.90;;;;;;5074372;28;19916;-83
2022/03/21 10:55:35;;;;;;;;;;;36.30;99.90;;;;;;5076111;28;19916;-82
2022/03/21 10:58:02;;;;;;;;;;;35.50;99.90;;;;;;5080991;28;19920;-83
2022/03/21 11:00:28;;;;;;;;;;;34.30;99.90;;;;;;5083361;28;19908;-83
2022/03/21 11:02:57;;;;;;;;;;;35.00;99.90;;;;;;5079553;28;19917;-82
2022/03/21 11:05:23;;;;;;;;;;;33.90;99.90;;;;;;5073614;28;19912;-82
2022/03/21 11:07:49;;;;;;;;;;;34.00;99.90;;;;;;5080056;28;20408;-83
2022/03/21 11:10:15;;;;;;;;;;;32.50;99.90;;;;;;5073706;28;19908;-82
2022/03/21 11:12:45;;;;;;;;;;;33.20;99.90;;;;;;5079530;28;19987;-82
2022/03/21 11:15:10;;;;;;;;;;;33.60;99.90;;;;;;5081700;28;19912;-83
2022/03/21 11:17:36;;;;;;;;;;;33.40;99.90;;;;;;5075522;28;19986;-81
2022/03/21 11:20:03;;;;;;;;;;;32.10;99.90;;;;;;5076121;28;19940;-82
2022/03/21 11:22:28;;;;;;;;;;;32.60;99.90;;;;;;5076830;28;19912;-84
2022/03/21 11:24:59;;;;;;;;;;;32.60;99.90;;;;;;5076880;28;19932;-82
2022/03/21 11:27:31;;;;;;;;;;;31.70;99.90;;;;;;5080842;28;19908;-83
2022/03/21 11:30:06;;;;;;;;;;;31.30;99.90;;;;;;5078329;28;19922;-83
2022/03/21 11:32:31;;;;;;;;;;;31.10;99.90;;;;;;5070164;28;19912;-83
2022/03/21 11:35:06;;;;;;;;;;;31.30;99.90;;;;;;5082212;28;19975;-84
2022/03/21 11:37:32;;;;;;;;;;;32.40;99.90;;;;;;5080299;28;19970;-83
2022/03/21 11:40:17;;;;;;;;;;;32.80;99.90;;;;;;5080151;28;19924;-84
2022/03/21 11:42:42;;;;;;;;;;;32.20;99.90;;;;;;5074239;28;19955;-84
2022/03/21 11:45:24;;;;;;;;;;;32.20;99.90;;;;;;5081222;28;19908;-83
2022/03/21 11:47:50;;;;;;;;;;;32.80;99.90;;;;;;5072087;28;19916;-83
2022/03/21 11:50:26;;;;;;;;;;;32.60;99.90;;;;;;5080185;28;20284;-83
2022/03/21 11:53:07;;;;;;;;;;;32.80;99.90;;;;;;5075810;28;20280;-84
2022/03/21 11:55:42;;;;;;;;;;;33.20;99.90;;;;;;5079057;28;19956;-84
2022/03/21 11:58:23;;;;;;;;;;;32.90;99.90;;;;;;5085760;28;19916;-82
2022/03/21 12:01:08;;;;;;;;;;;32.80;99.90;;;;;;5078573;28;19943;-83
2022/03/21 12:03:34;;;;;;;;;;;32.30;99.90;;;;;;5071895;28;19924;-83
2022/03/21 12:06:23;;;;;;;;;;;32.10;99.90;;;;;;5078920;28;19916;-85
2022/03/21 12:08:56;;;;;;;;;;;32.00;99.90;;;;;;5078393;28;19913;-83
2022/03/21 12:11:37;;;;;;;;;;;31.70;99.90;;;;;;5070874;28;20393;-81
2022/03/21 12:14:19;;;;;;;;;;;31.70;99.90;;;;;;5063490;28;19920;-82
2022/03/21 12:16:45;;;;;;;;;;;31.50;99.90;;;;;;5081570;28;19928;-82
2022/03/21 12:19:11;;;;;;;;;;;31.50;99.90;;;;;;5080109;28;19917;-84
2022/03/21 12:21:36;;;;;;;;;;;31.10;99.90;;;;;;5081920;28;19957;-84
2022/03/21 12:24:15;;;;;;;;;;;30.70;99.90;;;;;;5077903;28;19924;-82
2022/03/21 12:26:48;;;;;;;;;;;29.90;99.90;;;;;;5079932;28;20006;-84
2022/03/21 12:29:32;;;;;;;;;;;29.80;99.90;;;;;;5081708;28;19974;-84
2022/03/21 12:32:16;;;;;;;;;;;30.10;99.90;;;;;;5082204;28;19943;-85
2022/03/21 12:34:41;;;;;;;;;;;31.20;99.90;;;;;;5083747;28;19912;-86
2022/03/21 12:37:44;;;;;;;;;;;32.10;99.90;;;;;;5082395;28;19919;-84
2022/03/21 12:40:13;;;;;;;;;;;31.00;99.90;;;;;;5065080;28;19909;-83
2022/03/21 12:42:41;;;;;;;;;;;31.10;99.90;;;;;;5065610;28;23596;-83
2022/03/21 12:45:07;;;;;;;;;;;31.50;99.90;;;;;;5078072;28;20342;-82
2022/03/21 12:47:35;;;;;;;;;;;31.10;99.90;;;;;;5087264;28;19912;-84
2022/03/21 12:50:00;;;;;;;;;;;31.60;99.90;;;;;;5086551;28;19931;-85
2022/03/21 12:52:27;;;;;;;;;;;31.30;99.90;;;;;;5086962;28;19912;-84
2022/03/21 12:54:53;;;;;;;;;;;30.80;99.90;;;;;;5087236;28;19912;-84
2022/03/21 12:57:19;;;;;;;;;;;30.50;99.90;;;;;;5086589;28;19984;-85
2022/03/21 12:59:44;;;;;;;;;;;29.50;99.90;;;;;;5084053;28;19916;-85
2022/03/21 13:02:23;;;;;;;;;;;29.70;99.90;;;;;;5084517;28;19909;-81
2022/03/21 13:10:32;;;;;;;;;;;29.20;99.90;;;;;;5086424;28;19947;-83
2022/03/21 13:12:58;;;;;;;;;;;28.90;99.90;;;;;;5084118;28;19978;-83
2022/03/21 13:15:24;;;;;;;;;;;29.20;99.90;;;;;;5078822;28;19912;-83
2022/03/21 13:18:03;;;;;;;;;;;29.80;99.90;;;;;;5081000;28;19931;-81
2022/03/21 13:20:33;;;;;;;;;;;29.80;99.90;;;;;;5077700;28;19909;-81
2022/03/21 13:22:59;;;;;;;;;;;30.30;99.90;;;;;;5076233;28;19916;-82
2022/03/21 13:25:26;;;;;;;;;;;30.20;99.90;;;;;;5076971;28;19909;-81
2022/03/21 13:27:55;;;;;;;;;;;30.30;99.90;;;;;;5079572;28;20332;-82
2022/03/21 13:30:21;;;;;;;;;;;29.90;99.90;;;;;;5080147;28;19916;-82
2022/03/21 13:32:46;;;;;;;;;;;29.60;99.90;;;;;;5077337;28;19908;-82
2022/03/21 13:35:12;;;;;;;;;;;29.40;99.90;;;;;;5080007;28;20336;-82
2022/03/21 13:37:38;;;;;;;;;;;29.50;99.90;;;;;;5081480;28;19927;-81
2022/03/21 13:40:11;;;;;;;;;;;29.70;99.90;;;;;;5084781;28;19909;-84
2022/03/21 13:42:39;;;;;;;;;;;29.40;99.90;;;;;;5089986;28;19915;-84
2022/03/21 13:45:06;;;;;;;;;;;29.10;99.90;;;;;;5089701;28;19931;-83
2022/03/21 13:47:50;;;;;;;;;;;28.30;99.90;;;;;;5088726;28;19917;-83
2022/03/21 13:50:16;;;;;;;;;;;28.30;99.90;;;;;;5087369;28;19909;-82
2022/03/21 13:52:46;;;;;;;;;;;27.00;99.90;;;;;;5086437;28;20166;-82
2022/03/21 13:55:17;;;;;;;;;;;26.70;99.90;;;;;;5087269;28;19908;-81
2022/03/21 13:57:53;;;;;;;;;;;26.30;99.90;;;;;;5086150;28;19960;-83
2022/03/21 14:00:30;;;;;;;;;;;26.30;99.90;;;;;;5081676;28;19962;-80
2022/03/21 14:02:57;;;;;;;;;;;26.70;99.90;;;;;;5084880;28;19936;-84
2022/03/21 14:05:30;;;;;;;;;;;26.80;99.90;;;;;;5086340;28;19917;-82
2022/03/21 14:08:10;;;;;;;;;;;27.00;99.90;;;;;;5085972;28;19942;-82
2022/03/21 14:10:37;;;;;;;;;;;27.50;99.90;;;;;;5078540;28;19936;-84
2022/03/21 14:13:10;;;;;;;;;;;27.70;99.90;;;;;;5086333;28;19916;-82
2022/03/21 14:15:35;;;;;;;;;;;26.80;99.90;;;;;;5088409;28;20394;-83
2022/03/21 14:18:01;;;;;;;;;;;26.60;99.90;;;;;;5084055;28;19921;-82
2022/03/21 14:20:27;;;;;;;;;;;26.00;99.90;;;;;;5088571;28;19908;-82
2022/03/21 14:22:52;;;;;;;;;;;25.60;99.90;;;;;;5086284;28;19920;-85
2022/03/21 14:28:02;;;;;;;;;;;25.70;99.90;;;;;;5088630;28;20269;-83
2022/03/21 14:30:28;;;;;;;;;;;25.60;99.90;;;;;;5089773;28;19912;-84
2022/03/21 14:32:54;;;;;;;;;;;25.80;99.90;;;;;;5072179;28;20408;-83
2022/03/21 14:35:19;;;;;;;;;;;25.80;99.90;;;;;;5079595;28;19913;-83
2022/03/21 14:37:45;;;;;;;;;;;25.40;99.90;;;;;;5083589;28;19916;-84
2022/03/21 14:40:12;;;;;;;;;;;25.00;99.90;;;;;;5088662;28;19931;-83
2022/03/21 14:42:38;;;;;;;;;;;25.40;99.90;;;;;;5086465;28;19909;-85
2022/03/21 14:45:04;;;;;;;;;;;25.90;99.90;;;;;;5089112;28;19923;-83
2022/03/21 14:47:29;;;;;;;;;;;25.80;99.90;;;;;;5087224;28;19916;-81
2022/03/21 14:49:54;;;;;;;;;;;25.60;99.90;;;;;;5087333;28;19917;-84
2022/03/21 14:52:22;;;;;;;;;;;25.80;99.90;;;;;;5085145;28;20397;-84